Portada
METAR-TAF:

METAR-TAF

Aeroports :

Daşoguz, Turkmenistan

latitud: 41-45-53N, longitud: 059-49-59E, altitud: 83 m

Observació

L'informe es va fer fa 1 hora i 9 minuts, a les 13:00 UTC
Vent 4 kt del Nord-Est
Temperatura 6°C
Humitat 31%
Pressió 1030 hPa
Visibilitat 10 km o més
sense núvols per sota de 1500 mi sense presència de cumulonimbus.

METAR: UTAT 181300Z 05004KT CAVOK 06/M10 Q1030 R08/CLRD70 NOSIG

Hora: 19:09 (14:09 UTC)

Pronòstic

L'informe es va fer fa 3 hores i 35 minuts, a les 10:34 UTC
Pronòstic vàlid del 18 a les 12 UTC al 19 a les 12 UTC
Vent 4 kt amb direcció variable
Visibilitat 10 km o més
sense núvols per sota de 1500 mi sense presència de cumulonimbus.
Temporalment
l' 18 a les 12 UTC al 18 a les 18 UTC
Vent 10 kt del Est/Nord-Est

TAF: UTAT 181034Z 1812/1912 VRB04KT CAVOK TEMPO 1812/1818 06010KT

Observacions i pronòstics meteorològics de més de 4000 aeroports (METAR i TAF).

Les estacions disponibles són els punts grocs i vermells al mapa.

Posi el ratolí al punt desitjat per veure el nom de l'estació.

Feu clic per veure les observacions i els pronòstics meteorològics.

Per canviar el mapa: feu clic els botons verds amb una creu de color negre per apropar; al botó verd amb un guió per allunyar la imatge; o en les fletxes verdes per a mapes adjacents.


METAR-TAF: